Time;durP1;ratioP1;P1;durP2;ratioP2;P2;SDS_P1;SDS_P2;PMS_P1;PMS_P2;Temp;Humidity;BMP_temperature;BMP_pressure;BME280_temperature;BME280_humidity;BME280_pressure;Samples;Min_cycle;Max_cycle;Signal;HPM_P1;HPM_P2
2024/01/07 00:01:29;;;;;;;23.13;13.95;;;23.20;54.00;;;;;;5111125;28;20035;-74
2024/01/07 00:03:56;;;;;;;24.98;15.52;;;23.00;54.00;;;;;;5111443;28;20372;-74
2024/01/07 00:06:22;;;;;;;26.02;13.27;;;23.10;54.00;;;;;;5111276;27;20035;-74
2024/01/07 00:08:48;;;;;;;23.20;12.63;;;23.10;54.10;;;;;;5087834;28;20048;-74
2024/01/07 00:11:15;;;;;;;24.02;15.50;;;23.20;54.10;;;;;;5088444;28;20064;-74
2024/01/07 00:13:41;;;;;;;22.60;13.85;;;23.10;54.00;;;;;;5088526;28;20044;-74
2024/01/07 00:16:07;;;;;;;22.08;13.15;;;23.10;54.10;;;;;;5088290;28;20024;-75
2024/01/07 00:18:33;;;;;;;20.77;13.15;;;23.10;54.10;;;;;;5087678;28;20403;-74
2024/01/07 00:20:59;;;;;;;23.58;13.45;;;23.00;54.00;;;;;;5088313;28;20083;-75
2024/01/07 00:23:25;;;;;;;18.13;12.55;;;23.00;54.00;;;;;;5088300;28;20039;-73
2024/01/07 00:25:51;;;;;;;24.13;13.57;;;23.00;54.00;;;;;;5087936;28;20120;-73
2024/01/07 00:28:18;;;;;;;22.25;12.32;;;22.90;54.00;;;;;;5087938;28;20070;-74
2024/01/07 00:30:44;;;;;;;18.05;13.02;;;23.00;54.00;;;;;;5088421;28;20039;-73
2024/01/07 00:33:11;;;;;;;23.13;13.77;;;23.00;54.00;;;;;;5087595;28;20040;-73
2024/01/07 00:35:37;;;;;;;18.00;13.02;;;22.90;53.90;;;;;;5088088;28;20113;-73
2024/01/07 00:38:03;;;;;;;24.05;14.02;;;23.00;53.90;;;;;;5043340;28;20049;-73
2024/01/07 00:40:29;;;;;;;21.15;12.98;;;23.00;53.90;;;;;;5047937;28;20181;-73
2024/01/07 00:42:55;;;;;;;19.83;13.50;;;22.90;53.80;;;;;;5044326;28;20049;-74
2024/01/07 00:45:21;;;;;;;20.33;12.93;;;23.00;53.70;;;;;;5044434;28;20966;-73
2024/01/07 00:47:47;;;;;;;19.17;12.45;;;23.10;53.80;;;;;;5084465;28;20059;-74
2024/01/07 00:50:14;;;;;;;23.02;13.40;;;23.00;53.70;;;;;;5087497;28;20407;-74
2024/01/07 00:52:42;;;;;;;20.48;12.90;;;23.00;53.70;;;;;;5070991;28;20464;-73
2024/01/07 00:55:08;;;;;;;18.08;13.80;;;23.00;53.60;;;;;;5087678;28;20071;-73
2024/01/07 00:57:34;;;;;;;21.63;12.80;;;23.00;53.60;;;;;;5070571;28;20118;-74
2024/01/07 01:00:05;;;;;;;20.40;12.82;;;23.30;54.10;;;;;;5068951;28;20472;-73
2024/01/07 01:02:31;;;;;;;25.20;12.90;;;23.20;53.50;;;;;;5070961;28;20024;-73
2024/01/07 01:04:57;;;;;;;21.10;12.45;;;23.30;54.00;;;;;;5087110;28;20028;-74
2024/01/07 01:07:23;;;;;;;20.45;13.25;;;23.30;53.70;;;;;;5070848;28;20499;-74
2024/01/07 01:09:50;;;;;;;19.55;12.45;;;23.30;53.60;;;;;;5106514;28;20515;-73
2024/01/07 01:12:16;;;;;;;25.73;13.98;;;23.40;52.00;;;;;;5110531;28;20040;-73
2024/01/07 01:14:42;;;;;;;23.10;12.40;;;23.10;52.60;;;;;;5114221;28;20059;-73
2024/01/07 01:17:08;;;;;;;25.25;13.40;;;23.10;53.00;;;;;;5070914;28;20135;-74
2024/01/07 01:19:34;;;;;;;17.70;12.57;;;23.00;52.90;;;;;;5070709;28;20039;-74
2024/01/07 01:22:00;;;;;;;21.65;13.55;;;22.90;53.10;;;;;;5071166;28;20131;-73
2024/01/07 01:24:26;;;;;;;17.67;12.20;;;23.00;53.00;;;;;;5071016;28;20036;-73
2024/01/07 01:26:52;;;;;;;22.17;13.15;;;22.90;53.00;;;;;;5053403;28;20148;-73
2024/01/07 01:29:19;;;;;;;21.73;12.60;;;22.80;53.00;;;;;;5070895;28;20038;-73
2024/01/07 01:31:45;;;;;;;20.88;12.38;;;22.90;53.10;;;;;;5070544;28;20412;-73
2024/01/07 01:34:11;;;;;;;16.98;11.80;;;22.80;52.90;;;;;;5070821;28;20029;-74
2024/01/07 01:36:37;;;;;;;21.63;12.75;;;22.90;53.00;;;;;;5068478;28;20047;-74
2024/01/07 01:39:03;;;;;;;21.45;13.15;;;22.90;53.10;;;;;;5069459;28;20063;-74
2024/01/07 01:41:29;;;;;;;20.20;12.57;;;22.90;53.00;;;;;;5054071;28;20082;-74
2024/01/07 01:43:59;;;;;;;19.55;12.95;;;22.80;52.90;;;;;;5070193;28;20063;-74
2024/01/07 01:46:26;;;;;;;19.65;12.70;;;22.70;52.90;;;;;;5070610;28;20028;-74
2024/01/07 01:48:52;;;;;;;17.23;11.45;;;22.80;53.00;;;;;;5103195;28;20051;-73
2024/01/07 01:51:19;;;;;;;19.50;13.38;;;22.80;52.90;;;;;;5112550;28;20031;-73
2024/01/07 01:53:47;;;;;;;21.17;13.02;;;22.60;52.80;;;;;;5113737;28;20050;-73
2024/01/07 01:56:13;;;;;;;19.17;12.70;;;22.90;53.00;;;;;;5113690;28;20447;-74
2024/01/07 01:58:40;;;;;;;19.20;12.15;;;22.90;54.20;;;;;;5112381;28;20046;-74
2024/01/07 02:01:06;;;;;;;18.98;12.10;;;22.90;52.10;;;;;;5090473;28;20129;-73
2024/01/07 02:03:32;;;;;;;22.98;13.15;;;22.90;52.50;;;;;;5073673;28;20044;-74
2024/01/07 02:05:59;;;;;;;18.20;12.18;;;22.80;52.50;;;;;;5090127;28;20462;-74
2024/01/07 02:08:25;;;;;;;24.40;14.25;;;22.90;52.70;;;;;;5090428;28;20117;-74
2024/01/07 02:10:51;;;;;;;21.75;12.07;;;22.80;52.60;;;;;;5090738;28;20097;-74
2024/01/07 02:13:17;;;;;;;22.20;12.75;;;22.90;52.80;;;;;;5089808;28;20493;-74
2024/01/07 02:15:44;;;;;;;20.42;13.63;;;22.90;53.30;;;;;;5090508;28;20560;-74
2024/01/07 02:18:10;;;;;;;18.15;11.95;;;22.90;52.60;;;;;;5089524;28;20106;-73
2024/01/07 02:20:36;;;;;;;21.23;12.82;;;22.90;52.70;;;;;;5089172;28;20048;-73
2024/01/07 02:23:03;;;;;;;23.25;13.50;;;22.90;52.40;;;;;;5073518;28;20109;-74
2024/01/07 02:25:38;;;;;;;23.67;14.63;;;22.90;53.00;;;;;;5073088;28;20044;-74
2024/01/07 02:28:05;;;;;;;20.58;12.32;;;23.00;52.60;;;;;;5089966;28;20073;-74
2024/01/07 02:30:31;;;;;;;23.85;13.63;;;23.00;52.60;;;;;;5073407;28;20064;-74
2024/01/07 02:33:02;;;;;;;21.17;12.93;;;22.90;52.70;;;;;;5105631;28;20083;-73
2024/01/07 02:35:29;;;;;;;20.85;13.88;;;23.00;52.90;;;;;;5112722;28;20432;-73
2024/01/07 02:37:55;;;;;;;23.92;14.02;;;23.00;52.80;;;;;;5112546;28;20622;-73
2024/01/07 02:40:21;;;;;;;22.77;14.05;;;22.80;52.20;;;;;;5093431;28;20475;-73
2024/01/07 02:42:47;;;;;;;23.50;13.30;;;22.90;51.90;;;;;;5112201;28;20030;-73
2024/01/07 02:45:13;;;;;;;26.20;13.65;;;22.80;52.80;;;;;;5112753;28;20030;-74
2024/01/07 02:47:39;;;;;;;25.27;14.25;;;22.90;51.90;;;;;;5087931;28;20032;-73
2024/01/07 02:50:06;;;;;;;23.85;14.90;;;22.80;52.00;;;;;;5100858;28;20047;-74
2024/01/07 02:52:32;;;;;;;31.90;16.38;;;22.80;52.10;;;;;;5110487;28;20040;-73
2024/01/07 02:55:01;;;;;;;28.08;16.13;;;22.80;52.20;;;;;;5094628;28;20035;-74
2024/01/07 02:57:27;;;;;;;25.05;14.02;;;22.80;52.20;;;;;;5111948;28;20437;-73
2024/01/07 02:59:53;;;;;;;25.75;14.15;;;22.60;52.20;;;;;;5112223;28;20122;-74
2024/01/07 03:02:19;;;;;;;24.98;13.85;;;22.60;52.20;;;;;;5112365;28;20050;-74
2024/01/07 03:04:46;;;;;;;28.02;13.98;;;22.60;52.20;;;;;;5111892;28;20407;-74
2024/01/07 03:07:12;;;;;;;26.83;14.27;;;22.60;52.10;;;;;;5110269;28;20566;-72
2024/01/07 03:09:38;;;;;;;26.73;14.68;;;22.60;52.10;;;;;;5092296;28;20039;-74
2024/01/07 03:12:04;;;;;;;36.05;13.95;;;22.70;52.30;;;;;;5111288;28;20130;-74
2024/01/07 03:14:30;;;;;;;26.73;13.95;;;22.70;52.30;;;;;;5112291;28;20039;-73
2024/01/07 03:16:56;;;;;;;28.90;15.15;;;22.70;52.30;;;;;;5111592;28;20073;-73
2024/01/07 03:19:22;;;;;;;29.58;14.45;;;22.70;53.50;;;;;;5111068;28;20039;-73
2024/01/07 03:21:49;;;;;;;27.05;14.43;;;22.60;52.20;;;;;;5111771;28;20092;-74
2024/01/07 03:24:15;;;;;;;28.85;15.20;;;22.80;52.20;;;;;;5111744;28;20038;-74
2024/01/07 03:26:41;;;;;;;29.20;15.07;;;22.80;52.80;;;;;;5111234;28;20027;-73
2024/01/07 03:29:07;;;;;;;29.10;14.40;;;22.90;52.50;;;;;;5111590;28;20039;-73
2024/01/07 03:31:33;;;;;;;32.67;15.57;;;22.70;52.10;;;;;;5111376;28;20051;-73
2024/01/07 03:33:59;;;;;;;29.83;15.07;;;22.90;52.70;;;;;;5111904;28;20049;-74
2024/01/07 03:36:25;;;;;;;28.42;14.98;;;23.00;51.20;;;;;;5107077;28;20036;-73
2024/01/07 03:38:53;;;;;;;29.77;14.75;;;23.00;52.40;;;;;;5111426;28;20088;-73
2024/01/07 03:41:20;;;;;;;31.25;15.70;;;23.20;52.60;;;;;;5110052;28;20451;-73
2024/01/07 03:43:48;;;;;;;35.10;16.73;;;22.90;51.90;;;;;;5112003;28;20058;-73
2024/01/07 03:46:15;;;;;;;31.85;15.55;;;22.80;51.40;;;;;;5110553;28;20054;-74
2024/01/07 03:48:41;;;;;;;28.27;15.60;;;22.70;52.00;;;;;;5098732;28;20475;-74
2024/01/07 03:51:08;;;;;;;33.88;16.42;;;22.80;52.50;;;;;;5110397;28;20114;-75
2024/01/07 03:53:34;;;;;;;33.63;16.42;;;22.90;52.50;;;;;;5091909;28;20072;-74
2024/01/07 03:56:00;;;;;;;35.33;15.77;;;22.90;52.20;;;;;;5109955;28;20402;-73
2024/01/07 03:58:26;;;;;;;32.90;15.98;;;22.90;51.70;;;;;;5108674;28;20150;-73
2024/01/07 04:00:52;;;;;;;37.75;16.35;;;22.80;51.10;;;;;;5111639;28;20035;-73
2024/01/07 04:03:19;;;;;;;34.60;18.17;;;22.80;52.20;;;;;;5111257;28;20040;-73
2024/01/07 04:05:45;;;;;;;35.50;17.38;;;22.50;51.70;;;;;;5109925;28;20032;-74
2024/01/07 04:08:12;;;;;;;38.03;18.30;;;22.80;51.30;;;;;;5111603;28;20139;-73
2024/01/07 04:10:38;;;;;;;36.03;15.98;;;22.70;52.40;;;;;;5111225;28;20062;-73
2024/01/07 04:13:05;;;;;;;31.63;16.45;;;22.80;52.20;;;;;;5110815;28;20043;-73
2024/01/07 04:15:31;;;;;;;36.38;16.60;;;22.80;52.10;;;;;;5111167;28;20118;-74
2024/01/07 04:17:57;;;;;;;30.90;16.10;;;22.70;52.10;;;;;;5111019;28;20481;-73
2024/01/07 04:20:23;;;;;;;31.90;16.15;;;22.70;52.00;;;;;;5111036;28;20019;-74
2024/01/07 04:22:49;;;;;;;37.28;16.58;;;22.70;52.00;;;;;;5110992;28;20036;-73
2024/01/07 04:25:15;;;;;;;35.03;17.67;;;22.80;51.90;;;;;;5111146;28;20417;-74
2024/01/07 04:27:41;;;;;;;36.72;18.20;;;22.80;52.10;;;;;;5110380;28;20038;-73
2024/01/07 04:30:09;;;;;;;37.72;18.15;;;22.80;51.90;;;;;;5110847;28;20034;-73
2024/01/07 04:32:35;;;;;;;31.63;16.50;;;22.80;51.80;;;;;;5109466;28;20464;-74
2024/01/07 04:35:01;;;;;;;36.78;16.67;;;22.90;51.90;;;;;;5110917;28;20122;-73
2024/01/07 04:37:27;;;;;;;34.38;17.42;;;22.90;51.90;;;;;;5110872;28;20034;-73
2024/01/07 04:39:53;;;;;;;35.38;16.58;;;23.00;51.90;;;;;;5111115;28;20042;-73
2024/01/07 04:42:19;;;;;;;34.22;17.77;;;22.90;51.80;;;;;;5107578;28;20036;-73
2024/01/07 04:44:45;;;;;;;41.17;17.17;;;22.90;51.80;;;;;;5111028;28;20047;-73
2024/01/07 04:47:36;;;;;;;38.17;18.05;;;23.00;51.80;;;;;;5111918;28;20032;-73
2024/01/07 04:50:04;;;;;;;47.10;19.27;;;23.00;50.50;;;;;;5114879;28;20035;-73
2024/01/07 04:52:30;;;;;;;46.50;19.40;;;23.00;51.70;;;;;;5114729;28;20032;-73
2024/01/07 04:54:56;;;;;;;41.55;19.25;;;23.00;51.40;;;;;;5095351;28;20071;-74
2024/01/07 04:57:22;;;;;;;41.97;18.77;;;23.00;50.20;;;;;;5114590;28;20042;-73
2024/01/07 04:59:50;;;;;;;38.90;18.55;;;22.80;50.80;;;;;;5115050;28;20085;-73
2024/01/07 05:02:16;;;;;;;46.85;20.48;;;22.60;52.40;;;;;;5111983;28;20088;-74
2024/01/07 05:04:43;;;;;;;37.78;19.75;;;22.80;51.10;;;;;;5114065;28;20456;-73
2024/01/07 05:07:09;;;;;;;36.70;18.45;;;22.70;51.20;;;;;;5114667;28;20036;-73
2024/01/07 05:09:35;;;;;;;40.95;18.52;;;22.60;51.20;;;;;;5114204;28;20107;-73
2024/01/07 05:12:02;;;;;;;37.28;18.35;;;22.60;51.20;;;;;;5114532;28;20109;-73
2024/01/07 05:14:28;;;;;;;35.95;18.30;;;22.60;51.20;;;;;;5114597;28;20099;-73
2024/01/07 05:16:55;;;;;;;43.22;19.08;;;22.60;51.30;;;;;;5114529;28;20044;-74
2024/01/07 05:19:21;;;;;;;43.10;19.42;;;22.60;51.20;;;;;;5112595;28;20043;-74
2024/01/07 05:21:47;;;;;;;44.33;19.90;;;22.60;51.30;;;;;;5114448;28;20690;-73
2024/01/07 05:24:13;;;;;;;47.05;19.55;;;22.50;51.30;;;;;;5114827;28;20043;-74
2024/01/07 05:26:44;;;;;;;35.38;18.77;;;22.50;51.40;;;;;;5113813;28;20023;-73
2024/01/07 05:29:12;;;;;;;48.40;19.42;;;22.40;51.30;;;;;;5113955;28;20439;-73
2024/01/07 05:31:41;;;;;;;39.17;18.75;;;22.40;51.70;;;;;;5113387;28;20036;-74
2024/01/07 05:34:07;;;;;;;46.08;19.13;;;22.50;51.60;;;;;;5114053;28;20067;-73
2024/01/07 05:36:33;;;;;;;38.88;17.65;;;22.50;51.60;;;;;;5092499;28;20143;-74
2024/01/07 05:38:59;;;;;;;43.30;19.40;;;22.40;51.50;;;;;;5112832;28;20471;-74
2024/01/07 05:41:25;;;;;;;40.45;19.60;;;22.30;51.60;;;;;;5110857;28;20028;-73
2024/01/07 05:43:51;;;;;;;38.65;18.23;;;22.50;51.60;;;;;;5112617;28;20031;-73
2024/01/07 05:46:17;;;;;;;39.63;20.05;;;22.30;51.60;;;;;;5093499;28;20479;-73
2024/01/07 05:48:46;;;;;;;39.03;17.13;;;22.30;51.60;;;;;;5113019;28;20024;-74
2024/01/07 05:51:13;;;;;;;40.03;18.58;;;22.50;51.70;;;;;;5114068;28;20126;-73
2024/01/07 05:53:43;;;;;;;40.60;19.45;;;22.50;51.60;;;;;;5113147;28;20467;-73
2024/01/07 05:56:09;;;;;;;36.78;18.77;;;22.30;51.50;;;;;;5113480;28;20059;-73
2024/01/07 05:58:35;;;;;;;40.53;19.55;;;22.30;51.40;;;;;;5112644;28;20069;-73
2024/01/07 06:01:02;;;;;;;41.13;18.52;;;22.30;51.50;;;;;;5113887;28;20122;-74
2024/01/07 06:03:28;;;;;;;44.88;19.05;;;22.50;51.50;;;;;;5107198;28;20111;-74
2024/01/07 06:05:54;;;;;;;40.50;18.48;;;22.40;51.40;;;;;;5098676;28;20035;-73
2024/01/07 06:08:20;;;;;;;36.80;18.88;;;22.40;51.50;;;;;;5112492;28;20028;-73
2024/01/07 06:10:46;;;;;;;39.28;17.95;;;22.40;51.60;;;;;;5112193;28;20063;-73
2024/01/07 06:13:12;;;;;;;40.80;18.75;;;22.30;51.60;;;;;;5113502;28;20505;-73
2024/01/07 06:15:39;;;;;;;37.78;19.38;;;22.50;51.60;;;;;;5113622;28;20036;-73
2024/01/07 06:18:05;;;;;;;39.17;18.58;;;22.50;51.50;;;;;;5112562;28;20119;-74
2024/01/07 06:20:31;;;;;;;43.92;18.15;;;22.30;51.40;;;;;;5113115;28;20022;-73
2024/01/07 06:22:57;;;;;;;45.30;18.85;;;22.40;51.40;;;;;;5113447;28;20079;-73
2024/01/07 06:25:26;;;;;;;46.33;19.40;;;22.50;51.50;;;;;;5113284;28;20056;-72
2024/01/07 06:27:53;;;;;;;41.17;20.65;;;22.40;51.30;;;;;;5111202;28;20094;-74
2024/01/07 06:30:20;;;;;;;38.25;18.70;;;22.40;51.30;;;;;;5107698;28;20024;-73
2024/01/07 06:32:46;;;;;;;37.85;19.20;;;22.30;51.40;;;;;;5101186;28;20040;-76
2024/01/07 06:35:12;;;;;;;36.83;17.83;;;22.50;51.10;;;;;;5086826;28;20044;-74
2024/01/07 06:37:38;;;;;;;40.92;17.90;;;22.40;51.20;;;;;;5106826;28;20379;-74
2024/01/07 06:40:04;;;;;;;14.50;9.93;;;22.40;51.70;;;;;;5101210;27;20023;-73
2024/01/07 06:42:30;;;;;;;16.60;10.63;;;22.40;46.10;;;;;;5105439;28;20038;-74
2024/01/07 06:44:56;;;;;;;14.15;8.90;;;22.40;45.40;;;;;;5100725;28;20055;-79
2024/01/07 06:47:23;;;;;;;15.13;9.27;;;22.30;44.30;;;;;;5099958;28;20164;-79
2024/01/07 06:49:49;;;;;;;13.45;9.48;;;22.40;43.60;;;;;;5103059;28;20134;-81
2024/01/07 06:52:15;;;;;;;14.13;9.57;;;22.30;44.00;;;;;;5102892;28;20032;-81
2024/01/07 06:54:41;;;;;;;15.93;10.10;;;22.30;43.50;;;;;;5101474;28;20107;-81
2024/01/07 06:57:07;;;;;;;17.10;10.57;;;22.40;45.10;;;;;;5103753;28;20042;-76
2024/01/07 06:59:33;;;;;;;16.02;10.07;;;22.40;47.30;;;;;;5105012;28;20050;-76
2024/01/07 07:01:59;;;;;;;17.65;10.38;;;22.40;49.10;;;;;;5108902;28;20031;-75
2024/01/07 07:04:25;;;;;;;15.20;9.27;;;22.50;48.20;;;;;;5103514;28;20140;-73
2024/01/07 07:06:51;;;;;;;21.67;10.20;;;22.50;50.20;;;;;;5109278;28;20092;-73
2024/01/07 07:09:17;;;;;;;14.73;9.65;;;22.60;51.00;;;;;;5112078;28;20035;-73
2024/01/07 07:11:43;;;;;;;14.93;10.43;;;22.70;51.70;;;;;;5111169;28;20026;-74
2024/01/07 07:14:09;;;;;;;20.15;10.90;;;22.90;53.60;;;;;;5105354;28;20154;-73
2024/01/07 07:16:35;;;;;;;15.57;10.82;;;22.90;50.60;;;;;;5099311;28;20052;-77
2024/01/07 07:19:02;;;;;;;17.10;11.65;;;23.10;53.50;;;;;;5098914;28;20724;-73
2024/01/07 07:21:28;;;;;;;21.63;12.70;;;23.10;54.00;;;;;;5112239;28;20030;-72
2024/01/07 07:23:54;;;;;;;19.95;14.50;;;23.20;51.90;;;;;;5111778;28;20046;-73
2024/01/07 07:26:20;;;;;;;22.20;12.50;;;23.20;51.70;;;;;;5111683;28;20106;-75
2024/01/07 07:28:47;;;;;;;14.00;10.15;;;23.20;50.50;;;;;;5111424;28;20031;-73
2024/01/07 07:31:13;;;;;;;30.38;15.02;;;23.20;51.60;;;;;;5111317;28;20035;-76
2024/01/07 07:33:40;;;;;;;31.52;15.90;;;23.30;55.50;;;;;;5111819;28;20035;-76
2024/01/07 07:36:06;;;;;;;39.83;18.58;;;23.30;53.50;;;;;;5111404;28;20479;-75
2024/01/07 07:38:33;;;;;;;39.20;19.70;;;23.40;53.50;;;;;;5110980;28;20058;-78
2024/01/07 07:41:00;;;;;;;27.35;15.23;;;23.30;55.00;;;;;;5111477;27;20031;-75
2024/01/07 07:43:26;;;;;;;19.02;10.48;;;23.20;54.80;;;;;;5111431;28;20650;-75
2024/01/07 07:45:52;;;;;;;21.02;11.10;;;23.30;54.70;;;;;;5108978;28;20032;-74
2024/01/07 07:48:19;;;;;;;14.32;7.88;;;23.20;54.70;;;;;;5101756;28;20081;-75
2024/01/07 07:50:45;;;;;;;13.00;5.70;;;23.20;55.70;;;;;;5101538;28;20055;-75
2024/01/07 07:53:11;;;;;;;8.77;5.97;;;23.30;55.60;;;;;;5105934;28;20357;-74
2024/01/07 07:55:37;;;;;;;5.32;3.65;;;23.40;55.50;;;;;;5111674;28;20078;-74
2024/01/07 07:58:03;;;;;;;6.53;4.20;;;23.40;55.60;;;;;;5111322;28;20038;-75
2024/01/07 08:00:29;;;;;;;6.78;4.78;;;23.50;55.80;;;;;;5111906;28;20034;-74
2024/01/07 08:02:55;;;;;;;9.73;4.45;;;23.30;55.00;;;;;;5107522;28;20063;-76
2024/01/07 08:05:21;;;;;;;4.97;3.50;;;23.20;55.30;;;;;;5091375;28;20020;-74
2024/01/07 08:07:47;;;;;;;6.25;4.13;;;23.20;55.40;;;;;;5104921;28;20068;-75
2024/01/07 08:10:13;;;;;;;5.25;3.80;;;23.10;55.10;;;;;;5111627;28;20028;-73
2024/01/07 08:12:40;;;;;;;6.50;4.00;;;23.30;55.10;;;;;;5111451;28;20388;-75
2024/01/07 08:15:06;;;;;;;4.82;3.88;;;23.20;55.10;;;;;;5111042;28;20118;-75
2024/01/07 08:17:32;;;;;;;6.75;4.13;;;23.20;55.10;;;;;;5110710;28;20036;-74
2024/01/07 08:19:59;;;;;;;6.60;4.57;;;23.20;56.00;;;;;;5110749;28;20523;-75
2024/01/07 08:22:25;;;;;;;6.82;4.38;;;23.40;55.90;;;;;;5091436;28;20086;-74
2024/01/07 08:24:51;;;;;;;5.82;3.90;;;23.30;55.60;;;;;;5111465;28;20063;-78
2024/01/07 08:27:17;;;;;;;6.68;4.43;;;23.30;55.40;;;;;;5110158;28;20463;-78
2024/01/07 08:29:44;;;;;;;4.97;4.10;;;23.30;55.70;;;;;;5111579;28;20028;-77
2024/01/07 08:32:10;;;;;;;11.23;7.25;;;23.40;56.30;;;;;;5111275;28;20092;-77
2024/01/07 08:34:37;;;;;;;10.15;6.78;;;23.40;55.70;;;;;;5109286;28;20040;-77
2024/01/07 08:37:03;;;;;;;57.67;16.00;;;23.50;52.10;;;;;;5110826;28;20054;-77
2024/01/07 08:39:29;;;;;;;9.73;6.63;;;23.80;52.80;;;;;;5111877;28;20565;-80
2024/01/07 08:41:56;;;;;;;10.18;6.38;;;23.90;53.40;;;;;;5110962;28;20367;-81
2024/01/07 08:44:22;;;;;;;11.40;7.20;;;23.60;48.90;;;;;;5111045;28;20027;-82
2024/01/07 08:46:48;;;;;;;9.68;5.90;;;23.70;49.20;;;;;;5111129;28;20035;-80
2024/01/07 08:49:14;;;;;;;9.90;6.60;;;23.70;48.50;;;;;;5111388;28;20042;-81
2024/01/07 08:51:40;;;;;;;9.25;6.30;;;23.60;46.90;;;;;;5111037;28;20057;-81
2024/01/07 08:54:06;;;;;;;7.50;5.57;;;23.70;47.00;;;;;;5110893;28;20020;-79
2024/01/07 08:56:32;;;;;;;12.02;5.40;;;23.60;44.60;;;;;;5112062;28;20119;-80
2024/01/07 08:58:59;;;;;;;6.65;4.22;;;23.50;45.80;;;;;;5111108;28;20039;-75
2024/01/07 09:01:25;;;;;;;6.38;4.55;;;23.60;50.10;;;;;;5110976;28;20168;-77
2024/01/07 09:03:51;;;;;;;6.03;4.07;;;23.60;51.80;;;;;;5110447;28;20734;-75
2024/01/07 09:06:17;;;;;;;8.30;4.28;;;23.60;52.00;;;;;;5111385;28;20518;-74
2024/01/07 09:08:43;;;;;;;6.25;4.47;;;23.70;52.50;;;;;;5111048;28;20107;-74
2024/01/07 09:11:12;;;;;;;7.32;4.18;;;23.60;52.70;;;;;;5110903;28;20035;-73
2024/01/07 09:13:38;;;;;;;9.38;5.00;;;23.70;53.00;;;;;;5094628;28;20383;-75
2024/01/07 09:16:05;;;;;;;7.95;4.53;;;23.70;53.30;;;;;;5110848;28;20107;-73
2024/01/07 09:18:31;;;;;;;8.38;4.93;;;23.70;53.40;;;;;;5110331;28;20039;-77
2024/01/07 09:20:57;;;;;;;7.80;5.05;;;23.70;53.50;;;;;;5105165;28;20032;-76
2024/01/07 09:23:23;;;;;;;8.93;4.47;;;23.60;53.60;;;;;;5101059;28;20111;-77
2024/01/07 09:25:49;;;;;;;6.60;4.50;;;23.60;53.70;;;;;;5095018;28;20035;-76
2024/01/07 09:28:15;;;;;;;8.57;5.03;;;23.60;53.50;;;;;;5107423;28;20119;-74
2024/01/07 09:30:41;;;;;;;8.43;5.03;;;23.70;53.80;;;;;;5103913;28;20115;-75
2024/01/07 09:33:07;;;;;;;8.23;5.55;;;23.70;53.70;;;;;;5100584;28;20131;-76
2024/01/07 09:35:34;;;;;;;7.13;4.88;;;23.60;53.70;;;;;;5104518;28;20036;-76
2024/01/07 09:38:00;;;;;;;10.07;5.60;;;23.50;53.80;;;;;;5105683;28;20406;-77
2024/01/07 09:40:26;;;;;;;8.27;4.65;;;23.60;54.10;;;;;;5103726;28;20481;-75
2024/01/07 09:42:52;;;;;;;6.88;4.78;;;23.50;54.40;;;;;;5100359;28;20540;-77
2024/01/07 09:45:19;;;;;;;9.32;6.05;;;23.50;54.90;;;;;;5110227;28;20032;-76
2024/01/07 09:47:46;;;;;;;7.10;4.93;;;23.50;55.80;;;;;;5113353;28;20044;-78
2024/01/07 09:50:13;;;;;;;10.02;5.38;;;23.40;55.40;;;;;;5076866;28;20040;-80
2024/01/07 09:52:44;;;;;;;8.27;5.15;;;23.40;55.40;;;;;;5112697;28;20028;-77
2024/01/07 09:55:15;;;;;;;7.32;5.25;;;23.30;55.40;;;;;;5112503;28;20032;-77
2024/01/07 09:57:44;;;;;;;10.30;6.18;;;23.30;55.40;;;;;;5114171;28;20371;-78
2024/01/07 10:00:12;;;;;;;7.38;5.47;;;23.40;55.50;;;;;;5114116;28;20031;-77
2024/01/07 10:02:41;;;;;;;10.68;6.75;;;23.30;55.40;;;;;;5114286;28;20122;-78
2024/01/07 10:05:07;;;;;;;10.35;5.80;;;23.20;55.10;;;;;;5113201;28;20049;-78
2024/01/07 10:07:33;;;;;;;7.43;5.80;;;23.20;55.00;;;;;;5114209;28;20489;-78
2024/01/07 10:10:13;;;;;;;10.63;6.32;;;23.20;54.70;;;;;;5114177;28;20447;-78
2024/01/07 10:12:39;;;;;;;12.48;6.10;;;23.20;54.80;;;;;;5114090;28;20036;-77
2024/01/07 10:15:05;;;;;;;9.23;6.03;;;23.20;54.80;;;;;;5113471;28;20031;-77
2024/01/07 10:17:31;;;;;;;9.48;6.05;;;23.20;54.70;;;;;;5113767;28;20507;-78
2024/01/07 10:19:57;;;;;;;8.43;5.97;;;23.20;54.70;;;;;;5113211;28;20023;-78
2024/01/07 10:22:24;;;;;;;8.75;6.35;;;23.20;54.60;;;;;;5113283;28;20028;-77
2024/01/07 10:24:51;;;;;;;13.68;6.18;;;23.10;54.60;;;;;;5113382;28;20040;-78
2024/01/07 10:27:17;;;;;;;8.55;5.80;;;23.00;54.60;;;;;;5113332;28;20036;-78
2024/01/07 10:29:50;;;;;;;12.70;6.28;;;23.00;53.80;;;;;;5113105;28;20417;-79
2024/01/07 10:32:19;;;;;;;10.88;6.57;;;22.90;54.20;;;;;;5113772;28;20065;-78
2024/01/07 10:34:49;;;;;;;11.98;6.78;;;22.90;54.30;;;;;;5109758;28;20040;-78
2024/01/07 10:37:15;;;;;;;11.65;6.22;;;22.90;54.50;;;;;;5113286;27;20042;-78
2024/01/07 10:39:41;;;;;;;8.95;5.80;;;22.90;55.30;;;;;;5112151;28;20019;-77
2024/01/07 10:42:09;;;;;;;10.77;5.90;;;23.10;54.20;;;;;;5112915;28;20027;-79
2024/01/07 10:44:35;;;;;;;10.45;5.90;;;22.90;54.30;;;;;;5112753;28;20032;-74
2024/01/07 10:47:07;;;;;;;8.95;5.30;;;22.90;54.40;;;;;;5112936;28;20107;-74
2024/01/07 10:49:36;;;;;;;9.43;5.75;;;23.10;54.40;;;;;;5110977;28;20040;-77
2024/01/07 10:52:07;;;;;;;8.75;4.90;;;23.00;54.30;;;;;;5113084;28;20046;-77
2024/01/07 10:54:35;;;;;;;9.13;5.50;;;22.90;54.40;;;;;;5111844;28;20420;-76
2024/01/07 10:57:27;;;;;;;8.02;5.50;;;22.90;54.60;;;;;;5112281;28;20023;-74
2024/01/07 10:59:55;;;;;;;6.63;4.43;;;22.80;53.80;;;;;;5112525;28;20043;-74
2024/01/07 11:02:22;;;;;;;8.48;5.18;;;23.10;53.80;;;;;;5112693;28;20117;-74
2024/01/07 11:04:56;;;;;;;27.63;12.48;;;23.20;52.00;;;;;;5111746;28;20019;-74
2024/01/07 11:07:37;;;;;;;17.85;10.23;;;23.30;54.70;;;;;;5112364;28;20368;-72
2024/01/07 11:10:20;;;;;;;11.40;8.13;;;23.30;53.30;;;;;;5107373;28;20036;-75
2024/01/07 11:12:58;;;;;;;11.10;8.20;;;23.40;48.90;;;;;;5099101;28;20047;-74
2024/01/07 11:15:49;;;;;;;32.95;9.10;;;23.60;51.20;;;;;;5110440;28;20555;-78
2024/01/07 11:18:23;;;;;;;31.77;22.05;;;23.80;59.20;;;;;;5091753;28;20055;-78
2024/01/07 11:20:49;;;;;;;20.88;13.07;;;24.10;57.70;;;;;;5105349;28;20036;-74
2024/01/07 11:23:43;;;;;;;13.75;10.00;;;24.10;55.90;;;;;;5112479;28;20035;-79
2024/01/07 11:26:10;;;;;;;;;;;24.20;55.20;;;;;;5059270;28;20349;-74
2024/01/07 11:28:45;;;;;;;10.00;7.03;;;24.40;54.30;;;;;;5111289;28;20057;-76
2024/01/07 11:31:13;;;;;;;10.27;6.60;;;24.40;54.50;;;;;;5112032;28;20032;-78
2024/01/07 11:33:41;;;;;;;7.68;5.43;;;24.60;55.30;;;;;;5108693;28;20032;-74
2024/01/07 11:36:07;;;;;;;8.30;6.68;;;24.70;53.10;;;;;;5111533;28;20032;-77
2024/01/07 11:38:39;;;;;;;9.18;6.38;;;24.80;50.80;;;;;;5110672;28;20055;-76
2024/01/07 11:41:06;;;;;;;7.45;5.32;;;24.90;49.40;;;;;;5086166;28;20079;-76
2024/01/07 11:43:35;;;;;;;5.50;4.38;;;24.90;45.90;;;;;;5110600;28;20432;-79
2024/01/07 11:46:01;;;;;;;9.48;4.95;;;25.00;46.60;;;;;;5109621;28;20040;-78
2024/01/07 11:48:27;;;;;;;32.55;8.02;;;25.00;45.20;;;;;;5106826;28;20032;-76
2024/01/07 11:50:53;;;;;;;9.75;5.75;;;25.00;44.00;;;;;;5103042;28;20026;-77
2024/01/07 11:53:20;;;;;;;7.45;4.90;;;25.20;42.30;;;;;;5111805;28;20047;-76
2024/01/07 11:55:46;;;;;;;6.25;3.90;;;25.30;44.60;;;;;;5110746;28;20642;-74
2024/01/07 11:58:13;;;;;;;3.83;2.85;;;25.20;47.20;;;;;;5108925;28;20032;-77
2024/01/07 12:00:39;;;;;;;4.63;3.00;;;25.40;47.30;;;;;;5111810;28;20031;-76
2024/01/07 12:03:05;;;;;;;5.43;3.38;;;25.40;46.80;;;;;;5111554;28;20039;-75
2024/01/07 12:05:31;;;;;;;5.38;3.17;;;25.40;46.40;;;;;;5110804;28;20098;-75
2024/01/07 12:07:57;;;;;;;5.20;3.15;;;25.40;45.90;;;;;;5111788;28;20501;-75
2024/01/07 12:10:24;;;;;;;6.78;3.22;;;25.30;45.60;;;;;;5111449;28;20039;-76
2024/01/07 12:12:50;;;;;;;6.80;3.13;;;25.30;45.20;;;;;;5111586;28;20035;-77
2024/01/07 12:15:17;;;;;;;3.08;2.72;;;25.30;45.10;;;;;;5095725;28;20479;-76
2024/01/07 12:17:55;;;;;;;5.15;3.25;;;25.30;44.90;;;;;;5100057;28;20487;-76
2024/01/07 12:20:21;;;;;;;4.53;2.97;;;24.90;45.00;;;;;;5112289;28;20019;-75
2024/01/07 12:22:47;;;;;;;3.95;3.22;;;25.20;45.20;;;;;;5111746;28;20032;-76
2024/01/07 12:25:13;;;;;;;4.57;3.05;;;25.00;45.70;;;;;;5105524;28;20031;-76
2024/01/07 12:27:41;;;;;;;4.90;3.47;;;24.90;46.20;;;;;;5095849;28;20094;-74
2024/01/07 12:30:07;;;;;;;3.38;2.65;;;24.80;46.40;;;;;;5095502;28;20846;-75
2024/01/07 12:32:35;;;;;;;7.97;3.55;;;24.80;46.80;;;;;;5106049;28;20399;-76